sensor_id;sensor_type;location;lat;lon;timestamp;temperature;humidity
64468;DHT22;50853;46.836;16.820;2022-07-23T00:01:36;24.50;49.70
64468;DHT22;50853;46.836;16.820;2022-07-23T00:04:02;24.40;52.20
64468;DHT22;50853;46.836;16.820;2022-07-23T00:06:28;24.20;51.60
64468;DHT22;50853;46.836;16.820;2022-07-23T00:08:54;24.20;51.10
64468;DHT22;50853;46.836;16.820;2022-07-23T00:11:19;24.10;53.90
64468;DHT22;50853;46.836;16.820;2022-07-23T00:13:48;24.00;55.30
64468;DHT22;50853;46.836;16.820;2022-07-23T00:16:14;23.90;55.00
64468;DHT22;50853;46.836;16.820;2022-07-23T00:18:40;23.90;52.00
64468;DHT22;50853;46.836;16.820;2022-07-23T00:21:06;23.90;51.30
64468;DHT22;50853;46.836;16.820;2022-07-23T00:23:32;23.90;51.10
64468;DHT22;50853;46.836;16.820;2022-07-23T00:25:58;23.90;51.80
64468;DHT22;50853;46.836;16.820;2022-07-23T00:28:24;23.80;55.60
64468;DHT22;50853;46.836;16.820;2022-07-23T00:30:50;23.80;54.40
64468;DHT22;50853;46.836;16.820;2022-07-23T00:33:16;23.70;54.10
64468;DHT22;50853;46.836;16.820;2022-07-23T00:35:42;23.70;53.40
64468;DHT22;50853;46.836;16.820;2022-07-23T00:38:09;23.70;52.80
64468;DHT22;50853;46.836;16.820;2022-07-23T00:40:35;23.70;53.30
64468;DHT22;50853;46.836;16.820;2022-07-23T00:43:02;23.60;52.80
64468;DHT22;50853;46.836;16.820;2022-07-23T00:45:28;23.60;52.10
64468;DHT22;50853;46.836;16.820;2022-07-23T00:47:54;23.70;51.90
64468;DHT22;50853;46.836;16.820;2022-07-23T00:50:20;23.60;52.10
64468;DHT22;50853;46.836;16.820;2022-07-23T00:52:46;23.60;51.60
64468;DHT22;50853;46.836;16.820;2022-07-23T00:55:12;23.60;51.10
64468;DHT22;50853;46.836;16.820;2022-07-23T00:57:40;23.70;52.00
64468;DHT22;50853;46.836;16.820;2022-07-23T01:00:08;23.60;51.50
64468;DHT22;50853;46.836;16.820;2022-07-23T01:02:35;23.60;51.80
64468;DHT22;50853;46.836;16.820;2022-07-23T01:05:01;23.60;52.00
64468;DHT22;50853;46.836;16.820;2022-07-23T01:07:27;23.60;51.80
64468;DHT22;50853;46.836;16.820;2022-07-23T01:09:54;23.60;51.80
64468;DHT22;50853;46.836;16.820;2022-07-23T01:12:20;23.60;51.50
64468;DHT22;50853;46.836;16.820;2022-07-23T01:14:57;23.50;51.00
64468;DHT22;50853;46.836;16.820;2022-07-23T01:17:23;23.60;50.60
64468;DHT22;50853;46.836;16.820;2022-07-23T01:19:49;23.60;50.60
64468;DHT22;50853;46.836;16.820;2022-07-23T01:22:18;23.60;50.40
64468;DHT22;50853;46.836;16.820;2022-07-23T01:24:45;23.60;50.20
64468;DHT22;50853;46.836;16.820;2022-07-23T01:27:11;23.50;50.20
64468;DHT22;50853;46.836;16.820;2022-07-23T01:29:38;23.50;50.30
64468;DHT22;50853;46.836;16.820;2022-07-23T01:32:05;23.50;50.40
64468;DHT22;50853;46.836;16.820;2022-07-23T01:34:31;23.60;50.50
64468;DHT22;50853;46.836;16.820;2022-07-23T01:36:57;23.70;50.10
64468;DHT22;50853;46.836;16.820;2022-07-23T01:39:23;23.60;50.00
64468;DHT22;50853;46.836;16.820;2022-07-23T01:41:48;23.60;49.60
64468;DHT22;50853;46.836;16.820;2022-07-23T01:44:14;23.50;51.60
64468;DHT22;50853;46.836;16.820;2022-07-23T01:46:41;23.40;52.30
64468;DHT22;50853;46.836;16.820;2022-07-23T01:49:07;23.30;52.00
64468;DHT22;50853;46.836;16.820;2022-07-23T01:51:32;23.30;53.00
64468;DHT22;50853;46.836;16.820;2022-07-23T01:53:58;23.20;55.60
64468;DHT22;50853;46.836;16.820;2022-07-23T01:56:27;23.10;57.40
64468;DHT22;50853;46.836;16.820;2022-07-23T01:58:53;23.10;54.30
64468;DHT22;50853;46.836;16.820;2022-07-23T02:01:18;23.20;51.90
64468;DHT22;50853;46.836;16.820;2022-07-23T02:03:44;23.20;52.90
64468;DHT22;50853;46.836;16.820;2022-07-23T02:06:10;23.10;56.80
64468;DHT22;50853;46.836;16.820;2022-07-23T02:08:36;22.90;58.10
64468;DHT22;50853;46.836;16.820;2022-07-23T02:11:02;22.80;58.50
64468;DHT22;50853;46.836;16.820;2022-07-23T02:13:28;22.70;57.90
64468;DHT22;50853;46.836;16.820;2022-07-23T02:15:55;22.60;60.00
64468;DHT22;50853;46.836;16.820;2022-07-23T02:18:20;22.50;61.30
64468;DHT22;50853;46.836;16.820;2022-07-23T02:20:46;22.50;60.40
64468;DHT22;50853;46.836;16.820;2022-07-23T02:23:12;22.40;60.60
64468;DHT22;50853;46.836;16.820;2022-07-23T02:25:38;22.30;60.90
64468;DHT22;50853;46.836;16.820;2022-07-23T02:28:04;22.30;58.10
64468;DHT22;50853;46.836;16.820;2022-07-23T02:30:30;22.30;60.40
64468;DHT22;50853;46.836;16.820;2022-07-23T02:32:56;22.30;60.70
64468;DHT22;50853;46.836;16.820;2022-07-23T02:35:22;22.20;61.00
64468;DHT22;50853;46.836;16.820;2022-07-23T02:37:48;22.10;61.20
64468;DHT22;50853;46.836;16.820;2022-07-23T02:40:14;22.10;61.50
64468;DHT22;50853;46.836;16.820;2022-07-23T02:42:40;22.10;62.00
64468;DHT22;50853;46.836;16.820;2022-07-23T02:45:06;22.00;62.30
64468;DHT22;50853;46.836;16.820;2022-07-23T02:47:32;22.00;62.80
64468;DHT22;50853;46.836;16.820;2022-07-23T02:49:58;22.00;61.90
64468;DHT22;50853;46.836;16.820;2022-07-23T02:52:24;22.00;63.10
64468;DHT22;50853;46.836;16.820;2022-07-23T02:54:50;21.90;63.90
64468;DHT22;50853;46.836;16.820;2022-07-23T02:57:16;21.80;64.00
64468;DHT22;50853;46.836;16.820;2022-07-23T02:59:41;21.90;60.50
64468;DHT22;50853;46.836;16.820;2022-07-23T03:02:07;21.90;60.90
64468;DHT22;50853;46.836;16.820;2022-07-23T03:04:33;21.80;62.10
64468;DHT22;50853;46.836;16.820;2022-07-23T03:06:59;21.80;62.30
64468;DHT22;50853;46.836;16.820;2022-07-23T03:09:25;21.90;60.70
64468;DHT22;50853;46.836;16.820;2022-07-23T03:11:51;21.90;60.30
64468;DHT22;50853;46.836;16.820;2022-07-23T03:14:17;21.80;61.70
64468;DHT22;50853;46.836;16.820;2022-07-23T03:16:43;21.80;62.80
64468;DHT22;50853;46.836;16.820;2022-07-23T03:19:09;21.80;61.50
64468;DHT22;50853;46.836;16.820;2022-07-23T03:21:34;21.80;61.00
64468;DHT22;50853;46.836;16.820;2022-07-23T03:24:04;21.80;62.20
64468;DHT22;50853;46.836;16.820;2022-07-23T03:26:30;21.70;61.20
64468;DHT22;50853;46.836;16.820;2022-07-23T03:28:56;21.70;61.80
64468;DHT22;50853;46.836;16.820;2022-07-23T03:31:22;21.70;62.70
64468;DHT22;50853;46.836;16.820;2022-07-23T03:33:47;21.70;64.30
64468;DHT22;50853;46.836;16.820;2022-07-23T03:36:13;21.70;64.20
64468;DHT22;50853;46.836;16.820;2022-07-23T03:38:39;21.70;62.40
64468;DHT22;50853;46.836;16.820;2022-07-23T03:41:05;21.70;63.60
64468;DHT22;50853;46.836;16.820;2022-07-23T03:43:31;21.60;64.00
64468;DHT22;50853;46.836;16.820;2022-07-23T03:45:57;21.60;64.50
64468;DHT22;50853;46.836;16.820;2022-07-23T03:48:23;21.60;65.20
64468;DHT22;50853;46.836;16.820;2022-07-23T03:50:49;21.60;64.80
64468;DHT22;50853;46.836;16.820;2022-07-23T03:53:15;21.60;65.00
64468;DHT22;50853;46.836;16.820;2022-07-23T03:55:41;21.60;65.10
64468;DHT22;50853;46.836;16.820;2022-07-23T03:58:06;21.70;65.10
64468;DHT22;50853;46.836;16.820;2022-07-23T04:00:32;21.70;65.10
64468;DHT22;50853;46.836;16.820;2022-07-23T04:02:58;21.70;65.00
64468;DHT22;50853;46.836;16.820;2022-07-23T04:05:24;21.70;65.90
64468;DHT22;50853;46.836;16.820;2022-07-23T04:07:50;21.80;66.10
64468;DHT22;50853;46.836;16.820;2022-07-23T04:10:15;21.80;65.60
64468;DHT22;50853;46.836;16.820;2022-07-23T04:12:41;21.90;65.00
64468;DHT22;50853;46.836;16.820;2022-07-23T04:15:08;22.10;64.30
64468;DHT22;50853;46.836;16.820;2022-07-23T04:17:34;22.30;65.40
64468;DHT22;50853;46.836;16.820;2022-07-23T04:20:00;22.50;64.90
64468;DHT22;50853;46.836;16.820;2022-07-23T04:22:26;22.80;63.90
64468;DHT22;50853;46.836;16.820;2022-07-23T04:24:52;22.90;64.10
64468;DHT22;50853;46.836;16.820;2022-07-23T04:27:18;23.00;64.10
64468;DHT22;50853;46.836;16.820;2022-07-23T04:29:44;23.00;64.90
64468;DHT22;50853;46.836;16.820;2022-07-23T04:32:10;23.00;65.20
64468;DHT22;50853;46.836;16.820;2022-07-23T04:34:36;23.20;64.80
64468;DHT22;50853;46.836;16.820;2022-07-23T04:37:02;23.30;64.90
64468;DHT22;50853;46.836;16.820;2022-07-23T04:39:27;23.50;64.50
64468;DHT22;50853;46.836;16.820;2022-07-23T04:41:53;23.60;64.80
64468;DHT22;50853;46.836;16.820;2022-07-23T04:44:19;23.60;64.20
64468;DHT22;50853;46.836;16.820;2022-07-23T04:46:45;23.70;63.40
64468;DHT22;50853;46.836;16.820;2022-07-23T04:49:10;23.60;63.60
64468;DHT22;50853;46.836;16.820;2022-07-23T04:51:36;23.50;65.10
64468;DHT22;50853;46.836;16.820;2022-07-23T04:54:02;23.40;64.30
64468;DHT22;50853;46.836;16.820;2022-07-23T04:56:28;23.40;64.40
64468;DHT22;50853;46.836;16.820;2022-07-23T04:58:54;23.40;63.90
64468;DHT22;50853;46.836;16.820;2022-07-23T05:01:20;23.50;64.00
64468;DHT22;50853;46.836;16.820;2022-07-23T05:03:45;23.60;64.60
64468;DHT22;50853;46.836;16.820;2022-07-23T05:06:14;23.80;64.20
64468;DHT22;50853;46.836;16.820;2022-07-23T05:08:40;23.90;63.80
64468;DHT22;50853;46.836;16.820;2022-07-23T05:11:05;24.10;63.60
64468;DHT22;50853;46.836;16.820;2022-07-23T05:13:31;24.30;63.80
64468;DHT22;50853;46.836;16.820;2022-07-23T05:15:57;24.70;63.40
64468;DHT22;50853;46.836;16.820;2022-07-23T05:18:23;24.90;62.60
64468;DHT22;50853;46.836;16.820;2022-07-23T05:20:49;25.20;62.30
64468;DHT22;50853;46.836;16.820;2022-07-23T05:23:15;25.40;62.10
64468;DHT22;50853;46.836;16.820;2022-07-23T05:25:41;25.60;62.10
64468;DHT22;50853;46.836;16.820;2022-07-23T05:28:07;25.90;61.10
64468;DHT22;50853;46.836;16.820;2022-07-23T05:30:33;26.00;61.30
64468;DHT22;50853;46.836;16.820;2022-07-23T05:32:59;26.20;61.20
64468;DHT22;50853;46.836;16.820;2022-07-23T05:35:25;26.30;60.40
64468;DHT22;50853;46.836;16.820;2022-07-23T05:37:51;26.50;60.60
64468;DHT22;50853;46.836;16.820;2022-07-23T05:40:18;26.60;60.40
64468;DHT22;50853;46.836;16.820;2022-07-23T05:42:44;26.80;60.10
64468;DHT22;50853;46.836;16.820;2022-07-23T05:45:10;27.00;59.20
64468;DHT22;50853;46.836;16.820;2022-07-23T05:47:47;27.20;58.10
64468;DHT22;50853;46.836;16.820;2022-07-23T05:50:13;27.40;55.80
64468;DHT22;50853;46.836;16.820;2022-07-23T05:52:40;27.40;56.70
64468;DHT22;50853;46.836;16.820;2022-07-23T05:55:06;27.50;54.80
64468;DHT22;50853;46.836;16.820;2022-07-23T05:57:33;27.70;55.20
64468;DHT22;50853;46.836;16.820;2022-07-23T05:59:58;27.90;55.10
64468;DHT22;50853;46.836;16.820;2022-07-23T06:02:24;28.10;54.20
64468;DHT22;50853;46.836;16.820;2022-07-23T06:04:50;28.30;55.00
64468;DHT22;50853;46.836;16.820;2022-07-23T06:07:16;28.50;54.90
64468;DHT22;50853;46.836;16.820;2022-07-23T06:09:42;28.70;54.00
64468;DHT22;50853;46.836;16.820;2022-07-23T06:12:08;28.90;53.80
64468;DHT22;50853;46.836;16.820;2022-07-23T06:14:34;29.10;52.80
64468;DHT22;50853;46.836;16.820;2022-07-23T06:17:00;29.20;53.50
64468;DHT22;50853;46.836;16.820;2022-07-23T06:19:26;29.40;52.50
64468;DHT22;50853;46.836;16.820;2022-07-23T06:21:51;29.50;52.00
64468;DHT22;50853;46.836;16.820;2022-07-23T06:24:17;29.60;52.20
64468;DHT22;50853;46.836;16.820;2022-07-23T06:26:43;29.60;52.50
64468;DHT22;50853;46.836;16.820;2022-07-23T06:29:10;30.00;51.40
64468;DHT22;50853;46.836;16.820;2022-07-23T06:31:35;30.20;51.80
64468;DHT22;50853;46.836;16.820;2022-07-23T06:34:01;30.40;52.00
64468;DHT22;50853;46.836;16.820;2022-07-23T06:36:27;30.50;51.10
64468;DHT22;50853;46.836;16.820;2022-07-23T06:38:53;30.60;52.40
64468;DHT22;50853;46.836;16.820;2022-07-23T06:41:19;30.80;51.30
64468;DHT22;50853;46.836;16.820;2022-07-23T06:43:45;30.90;51.50
64468;DHT22;50853;46.836;16.820;2022-07-23T06:46:10;31.00;50.90
64468;DHT22;50853;46.836;16.820;2022-07-23T06:48:36;31.20;51.20
64468;DHT22;50853;46.836;16.820;2022-07-23T06:51:03;31.30;50.50
64468;DHT22;50853;46.836;16.820;2022-07-23T06:53:28;31.40;48.70
64468;DHT22;50853;46.836;16.820;2022-07-23T06:55:54;31.50;50.50
64468;DHT22;50853;46.836;16.820;2022-07-23T06:58:20;31.60;49.50
64468;DHT22;50853;46.836;16.820;2022-07-23T07:00:46;31.70;50.60
64468;DHT22;50853;46.836;16.820;2022-07-23T07:03:12;31.90;50.20
64468;DHT22;50853;46.836;16.820;2022-07-23T07:05:38;32.00;51.50
64468;DHT22;50853;46.836;16.820;2022-07-23T07:08:05;32.10;50.00
64468;DHT22;50853;46.836;16.820;2022-07-23T07:10:32;32.20;49.70
64468;DHT22;50853;46.836;16.820;2022-07-23T07:12:58;32.40;48.30
64468;DHT22;50853;46.836;16.820;2022-07-23T07:15:23;32.40;49.00
64468;DHT22;50853;46.836;16.820;2022-07-23T07:17:49;32.70;50.00
64468;DHT22;50853;46.836;16.820;2022-07-23T07:20:15;32.80;47.40
64468;DHT22;50853;46.836;16.820;2022-07-23T07:22:41;32.80;46.00
64468;DHT22;50853;46.836;16.820;2022-07-23T07:25:07;33.00;47.40
64468;DHT22;50853;46.836;16.820;2022-07-23T07:27:33;33.10;45.90
64468;DHT22;50853;46.836;16.820;2022-07-23T07:29:59;33.00;44.90
64468;DHT22;50853;46.836;16.820;2022-07-23T07:32:25;33.10;46.60
64468;DHT22;50853;46.836;16.820;2022-07-23T07:34:51;33.30;46.10
64468;DHT22;50853;46.836;16.820;2022-07-23T07:37:17;33.50;46.60
64468;DHT22;50853;46.836;16.820;2022-07-23T07:39:43;33.60;44.80
64468;DHT22;50853;46.836;16.820;2022-07-23T07:42:08;33.70;45.00
64468;DHT22;50853;46.836;16.820;2022-07-23T07:44:34;34.00;45.00
64468;DHT22;50853;46.836;16.820;2022-07-23T07:47:00;34.30;45.10
64468;DHT22;50853;46.836;16.820;2022-07-23T07:49:26;34.40;46.60
64468;DHT22;50853;46.836;16.820;2022-07-23T07:51:52;34.60;46.40
64468;DHT22;50853;46.836;16.820;2022-07-23T07:54:18;34.80;45.90
64468;DHT22;50853;46.836;16.820;2022-07-23T07:56:43;34.80;45.90
64468;DHT22;50853;46.836;16.820;2022-07-23T07:59:09;35.00;45.30
64468;DHT22;50853;46.836;16.820;2022-07-23T08:01:36;35.00;46.00
64468;DHT22;50853;46.836;16.820;2022-07-23T08:04:03;35.10;46.40
64468;DHT22;50853;46.836;16.820;2022-07-23T08:06:29;35.10;47.30
64468;DHT22;50853;46.836;16.820;2022-07-23T08:08:54;35.10;46.70
64468;DHT22;50853;46.836;16.820;2022-07-23T08:11:20;35.30;45.80
64468;DHT22;50853;46.836;16.820;2022-07-23T08:13:46;35.70;44.90
64468;DHT22;50853;46.836;16.820;2022-07-23T08:16:12;35.50;43.30
64468;DHT22;50853;46.836;16.820;2022-07-23T08:18:37;35.80;45.30
64468;DHT22;50853;46.836;16.820;2022-07-23T08:21:03;35.90;43.20
64468;DHT22;50853;46.836;16.820;2022-07-23T08:23:32;36.00;42.30
64468;DHT22;50853;46.836;16.820;2022-07-23T08:25:58;36.20;42.70
64468;DHT22;50853;46.836;16.820;2022-07-23T08:28:25;36.30;41.80
64468;DHT22;50853;46.836;16.820;2022-07-23T08:30:51;36.40;40.60
64468;DHT22;50853;46.836;16.820;2022-07-23T08:33:18;36.60;43.40
64468;DHT22;50853;46.836;16.820;2022-07-23T08:48:22;37.10;41.30
64468;DHT22;50853;46.836;16.820;2022-07-23T08:50:54;37.10;43.50
64468;DHT22;50853;46.836;16.820;2022-07-23T08:53:22;37.60;41.50
64468;DHT22;50853;46.836;16.820;2022-07-23T08:55:54;37.40;39.30
64468;DHT22;50853;46.836;16.820;2022-07-23T08:58:20;37.50;38.60
64468;DHT22;50853;46.836;16.820;2022-07-23T09:00:47;37.50;38.10
64468;DHT22;50853;46.836;16.820;2022-07-23T09:03:33;37.90;39.40
64468;DHT22;50853;46.836;16.820;2022-07-23T09:06:00;37.70;40.20
64468;DHT22;50853;46.836;16.820;2022-07-23T09:08:36;37.80;40.40
64468;DHT22;50853;46.836;16.820;2022-07-23T09:11:05;38.00;41.10
64468;DHT22;50853;46.836;16.820;2022-07-23T09:13:42;38.20;41.30
64468;DHT22;50853;46.836;16.820;2022-07-23T09:16:24;38.30;41.00
64468;DHT22;50853;46.836;16.820;2022-07-23T09:31:24;38.60;38.60
64468;DHT22;50853;46.836;16.820;2022-07-23T09:33:50;38.80;38.30
64468;DHT22;50853;46.836;16.820;2022-07-23T09:36:27;38.90;39.80
64468;DHT22;50853;46.836;16.820;2022-07-23T09:38:54;39.00;41.10
64468;DHT22;50853;46.836;16.820;2022-07-23T09:41:20;39.20;39.90
64468;DHT22;50853;46.836;16.820;2022-07-23T09:43:46;39.20;39.70
64468;DHT22;50853;46.836;16.820;2022-07-23T09:46:26;39.20;39.60
64468;DHT22;50853;46.836;16.820;2022-07-23T09:48:54;39.30;40.50
64468;DHT22;50853;46.836;16.820;2022-07-23T09:51:23;39.00;39.40
64468;DHT22;50853;46.836;16.820;2022-07-23T09:54:02;39.50;39.40
64468;DHT22;50853;46.836;16.820;2022-07-23T09:56:28;39.40;38.40
64468;DHT22;50853;46.836;16.820;2022-07-23T09:58:55;39.50;39.30
64468;DHT22;50853;46.836;16.820;2022-07-23T10:01:32;39.60;37.80
64468;DHT22;50853;46.836;16.820;2022-07-23T10:03:59;39.50;38.90
64468;DHT22;50853;46.836;16.820;2022-07-23T10:06:27;39.90;39.30
64468;DHT22;50853;46.836;16.820;2022-07-23T10:08:55;40.00;39.00
64468;DHT22;50853;46.836;16.820;2022-07-23T10:11:23;39.90;37.50
64468;DHT22;50853;46.836;16.820;2022-07-23T10:13:50;39.70;36.90
64468;DHT22;50853;46.836;16.820;2022-07-23T10:16:25;39.90;38.30
64468;DHT22;50853;46.836;16.820;2022-07-23T10:18:51;40.10;38.20
64468;DHT22;50853;46.836;16.820;2022-07-23T10:21:41;40.20;37.90
64468;DHT22;50853;46.836;16.820;2022-07-23T10:24:30;40.30;37.90
64468;DHT22;50853;46.836;16.820;2022-07-23T10:36:16;40.30;38.20
64468;DHT22;50853;46.836;16.820;2022-07-23T10:39:03;40.50;39.00
64468;DHT22;50853;46.836;16.820;2022-07-23T10:41:36;40.30;36.10
64468;DHT22;50853;46.836;16.820;2022-07-23T10:44:12;40.00;38.30
64468;DHT22;50853;46.836;16.820;2022-07-23T10:46:58;40.00;36.40
64468;DHT22;50853;46.836;16.820;2022-07-23T10:49:30;39.60;35.90
64468;DHT22;50853;46.836;16.820;2022-07-23T10:54:41;39.50;36.30
64468;DHT22;50853;46.836;16.820;2022-07-23T10:57:08;39.80;38.50
64468;DHT22;50853;46.836;16.820;2022-07-23T11:02:36;39.00;35.00
64468;DHT22;50853;46.836;16.820;2022-07-23T11:05:05;38.80;38.20
64468;DHT22;50853;46.836;16.820;2022-07-23T11:07:32;38.50;36.60
64468;DHT22;50853;46.836;16.820;2022-07-23T11:09:58;38.70;36.00
64468;DHT22;50853;46.836;16.820;2022-07-23T11:15:12;39.20;38.60
64468;DHT22;50853;46.836;16.820;2022-07-23T11:17:58;39.20;37.90
64468;DHT22;50853;46.836;16.820;2022-07-23T11:20:28;39.10;35.40
64468;DHT22;50853;46.836;16.820;2022-07-23T11:22:58;39.40;37.50
64468;DHT22;50853;46.836;16.820;2022-07-23T11:27:51;39.00;35.70
64468;DHT22;50853;46.836;16.820;2022-07-23T11:33:18;38.80;37.70
64468;DHT22;50853;46.836;16.820;2022-07-23T11:35:46;38.50;37.00
64468;DHT22;50853;46.836;16.820;2022-07-23T11:38:20;38.40;37.40
64468;DHT22;50853;46.836;16.820;2022-07-23T11:40:52;38.90;38.50
64468;DHT22;50853;46.836;16.820;2022-07-23T11:43:19;39.00;38.80
64468;DHT22;50853;46.836;16.820;2022-07-23T11:45:57;39.00;39.90
64468;DHT22;50853;46.836;16.820;2022-07-23T11:48:26;39.00;39.60
64468;DHT22;50853;46.836;16.820;2022-07-23T11:50:55;39.30;40.00
64468;DHT22;50853;46.836;16.820;2022-07-23T11:53:30;39.20;38.70
64468;DHT22;50853;46.836;16.820;2022-07-23T11:56:10;39.10;37.70
64468;DHT22;50853;46.836;16.820;2022-07-23T11:58:37;39.30;37.70
64468;DHT22;50853;46.836;16.820;2022-07-23T12:01:04;39.30;37.60
64468;DHT22;50853;46.836;16.820;2022-07-23T12:03:30;38.90;36.90
64468;DHT22;50853;46.836;16.820;2022-07-23T12:05:56;39.00;37.00
64468;DHT22;50853;46.836;16.820;2022-07-23T12:08:23;39.20;38.20
64468;DHT22;50853;46.836;16.820;2022-07-23T12:10:48;39.50;37.50
64468;DHT22;50853;46.836;16.820;2022-07-23T12:13:17;39.50;37.20
64468;DHT22;50853;46.836;16.820;2022-07-23T12:15:45;39.50;37.40
64468;DHT22;50853;46.836;16.820;2022-07-23T12:18:13;39.50;36.50
64468;DHT22;50853;46.836;16.820;2022-07-23T12:20:42;39.30;39.00
64468;DHT22;50853;46.836;16.820;2022-07-23T12:23:11;39.00;37.90
64468;DHT22;50853;46.836;16.820;2022-07-23T12:25:39;39.40;39.00
64468;DHT22;50853;46.836;16.820;2022-07-23T12:28:17;39.40;38.80
64468;DHT22;50853;46.836;16.820;2022-07-23T12:30:44;39.40;37.80
64468;DHT22;50853;46.836;16.820;2022-07-23T12:33:54;39.10;38.20
64468;DHT22;50853;46.836;16.820;2022-07-23T12:36:03;39.20;37.60
64468;DHT22;50853;46.836;16.820;2022-07-23T12:38:43;39.50;39.20
64468;DHT22;50853;46.836;16.820;2022-07-23T12:41:11;39.70;38.80
64468;DHT22;50853;46.836;16.820;2022-07-23T12:43:39;39.70;38.70
64468;DHT22;50853;46.836;16.820;2022-07-23T12:46:14;39.40;37.30
64468;DHT22;50853;46.836;16.820;2022-07-23T12:48:52;39.50;38.10
64468;DHT22;50853;46.836;16.820;2022-07-23T12:51:23;39.40;36.80
64468;DHT22;50853;46.836;16.820;2022-07-23T12:53:55;39.60;37.70
64468;DHT22;50853;46.836;16.820;2022-07-23T12:56:29;39.30;37.90
64468;DHT22;50853;46.836;16.820;2022-07-23T13:01:30;39.40;38.90
64468;DHT22;50853;46.836;16.820;2022-07-23T13:06:34;39.80;37.00
64468;DHT22;50853;46.836;16.820;2022-07-23T13:09:01;39.60;37.40
64468;DHT22;50853;46.836;16.820;2022-07-23T13:11:27;39.60;38.50
64468;DHT22;50853;46.836;16.820;2022-07-23T13:13:53;39.60;39.30
64468;DHT22;50853;46.836;16.820;2022-07-23T13:16:18;39.50;39.40
64468;DHT22;50853;46.836;16.820;2022-07-23T13:18:44;39.50;38.70
64468;DHT22;50853;46.836;16.820;2022-07-23T13:21:10;39.50;39.20
64468;DHT22;50853;46.836;16.820;2022-07-23T13:23:36;39.30;39.80
64468;DHT22;50853;46.836;16.820;2022-07-23T13:26:03;39.60;39.70
64468;DHT22;50853;46.836;16.820;2022-07-23T13:28:29;39.70;40.00
64468;DHT22;50853;46.836;16.820;2022-07-23T13:30:56;39.80;36.90
64468;DHT22;50853;46.836;16.820;2022-07-23T13:33:22;40.00;36.70
64468;DHT22;50853;46.836;16.820;2022-07-23T13:35:49;40.20;36.20
64468;DHT22;50853;46.836;16.820;2022-07-23T13:38:16;40.00;36.00
64468;DHT22;50853;46.836;16.820;2022-07-23T13:40:45;39.80;35.30
64468;DHT22;50853;46.836;16.820;2022-07-23T13:43:14;39.60;34.50
64468;DHT22;50853;46.836;16.820;2022-07-23T13:45:41;39.70;36.80
64468;DHT22;50853;46.836;16.820;2022-07-23T13:48:11;39.40;36.30
64468;DHT22;50853;46.836;16.820;2022-07-23T13:50:38;39.40;35.50
64468;DHT22;50853;46.836;16.820;2022-07-23T13:53:07;39.60;35.70
64468;DHT22;50853;46.836;16.820;2022-07-23T13:55:33;39.20;35.70
64468;DHT22;50853;46.836;16.820;2022-07-23T13:58:00;39.00;37.10
64468;DHT22;50853;46.836;16.820;2022-07-23T14:00:27;39.10;37.70
64468;DHT22;50853;46.836;16.820;2022-07-23T14:02:53;38.80;36.80
64468;DHT22;50853;46.836;16.820;2022-07-23T14:05:19;38.90;37.30
64468;DHT22;50853;46.836;16.820;2022-07-23T14:07:45;38.80;38.70
64468;DHT22;50853;46.836;16.820;2022-07-23T14:10:13;38.70;36.50
64468;DHT22;50853;46.836;16.820;2022-07-23T14:12:38;38.60;37.90
64468;DHT22;50853;46.836;16.820;2022-07-23T14:15:05;38.60;38.00
64468;DHT22;50853;46.836;16.820;2022-07-23T14:17:31;38.50;38.40
64468;DHT22;50853;46.836;16.820;2022-07-23T14:19:58;38.50;37.30
64468;DHT22;50853;46.836;16.820;2022-07-23T14:22:24;38.40;38.70
64468;DHT22;50853;46.836;16.820;2022-07-23T14:24:50;38.00;37.90
64468;DHT22;50853;46.836;16.820;2022-07-23T14:27:16;38.10;39.50
64468;DHT22;50853;46.836;16.820;2022-07-23T14:29:43;37.80;38.00
64468;DHT22;50853;46.836;16.820;2022-07-23T14:32:08;37.60;38.60
64468;DHT22;50853;46.836;16.820;2022-07-23T14:34:35;37.40;39.30
64468;DHT22;50853;46.836;16.820;2022-07-23T14:37:01;37.20;40.40
64468;DHT22;50853;46.836;16.820;2022-07-23T14:39:27;36.70;37.70
64468;DHT22;50853;46.836;16.820;2022-07-23T14:41:53;35.70;38.80
64468;DHT22;50853;46.836;16.820;2022-07-23T14:44:18;35.40;39.00
64468;DHT22;50853;46.836;16.820;2022-07-23T14:46:44;34.70;39.50
64468;DHT22;50853;46.836;16.820;2022-07-23T14:49:10;34.30;39.10
64468;DHT22;50853;46.836;16.820;2022-07-23T14:51:36;33.90;39.00
64468;DHT22;50853;46.836;16.820;2022-07-23T14:54:03;33.90;40.30
64468;DHT22;50853;46.836;16.820;2022-07-23T14:56:29;33.70;39.50
64468;DHT22;50853;46.836;16.820;2022-07-23T14:58:55;33.50;39.70
64468;DHT22;50853;46.836;16.820;2022-07-23T15:01:22;32.90;39.60
64468;DHT22;50853;46.836;16.820;2022-07-23T15:03:49;32.70;40.00
64468;DHT22;50853;46.836;16.820;2022-07-23T15:06:16;32.60;40.30
64468;DHT22;50853;46.836;16.820;2022-07-23T15:08:42;32.40;41.10
64468;DHT22;50853;46.836;16.820;2022-07-23T15:11:08;32.40;41.80
64468;DHT22;50853;46.836;16.820;2022-07-23T15:13:37;32.70;41.30
64468;DHT22;50853;46.836;16.820;2022-07-23T15:16:04;32.40;41.60
64468;DHT22;50853;46.836;16.820;2022-07-23T15:18:30;32.40;42.80
64468;DHT22;50853;46.836;16.820;2022-07-23T15:20:56;32.60;42.70
64468;DHT22;50853;46.836;16.820;2022-07-23T15:23:22;32.70;43.60
64468;DHT22;50853;46.836;16.820;2022-07-23T15:25:48;32.60;44.30
64468;DHT22;50853;46.836;16.820;2022-07-23T15:28:14;32.50;43.40
64468;DHT22;50853;46.836;16.820;2022-07-23T15:30:40;32.60;43.80
64468;DHT22;50853;46.836;16.820;2022-07-23T15:33:06;32.50;43.80
64468;DHT22;50853;46.836;16.820;2022-07-23T15:35:32;32.30;43.10
64468;DHT22;50853;46.836;16.820;2022-07-23T15:37:58;32.20;43.50
64468;DHT22;50853;46.836;16.820;2022-07-23T15:40:24;32.30;43.90
64468;DHT22;50853;46.836;16.820;2022-07-23T15:42:50;32.10;43.60
64468;DHT22;50853;46.836;16.820;2022-07-23T15:45:16;32.20;43.10
64468;DHT22;50853;46.836;16.820;2022-07-23T15:47:42;32.00;44.00
64468;DHT22;50853;46.836;16.820;2022-07-23T15:50:09;31.90;43.10
64468;DHT22;50853;46.836;16.820;2022-07-23T15:52:35;31.90;43.00
64468;DHT22;50853;46.836;16.820;2022-07-23T15:55:01;31.70;43.40
64468;DHT22;50853;46.836;16.820;2022-07-23T15:57:27;31.50;43.70
64468;DHT22;50853;46.836;16.820;2022-07-23T15:59:53;31.50;43.50
64468;DHT22;50853;46.836;16.820;2022-07-23T16:02:22;31.40;43.20
64468;DHT22;50853;46.836;16.820;2022-07-23T16:04:48;31.10;43.50
64468;DHT22;50853;46.836;16.820;2022-07-23T16:07:16;31.10;44.20
64468;DHT22;50853;46.836;16.820;2022-07-23T16:09:42;30.90;43.50